Main page
METAR-TAF:

METAR-TAF

Airports :

New Smyrna Beach Municipal Airport

New Smyrna Beach, Florida, United States

latitude: 29-03-20N, longitude: 080-56-54W, elevation: 10 ft

Current weather observation

The report was made 40 minutes ago, at 12:50 UTC
Wind 6 mph from the South/Southwest
Temperature 81°F
Humidity 79%
Pressure 30.08 in. Hg
Visibility: 10 miles
Scattered clouds at a height of 600 ft

METAR: KEVB 281250Z 20005KT 10SM SCT006 27/23 A3008

Time: 09:30 (13:30 UTC)


TAF: missing

Weather observations and forecasts of more than 4000 airports (METAR and TAF reports).

The available stations are represented by yellow and red dots on the map.

Hover mouse over dot to see the name of the station.

Then click to see weather observations and forecasts.

To change the map : click on the green buttons with a black cross to zoom in, on the green button with a dash to zoom out, or on the green arrows for adjacent maps.


METAR-TAF: